Stations météo

réclame
Mon MeteoGroup
Vipiteno, Italie (16014): Température de l'air & dewpoint: 09.11.2018 22:00:00 - 15.11.2018 22:00:00 (CET)Vipiteno, Italie (16014): Vitesse du vent: 09.11.2018 22:00:00 - 15.11.2018 22:00:00 (CET)Vipiteno, Italie (16014): Direction du vent: 09.11.2018 22:00:00 - 15.11.2018 22:00:00 (CET)Vipiteno, Italie (16014): Quantités de précipitations: 09.11.2018 22:00:00 - 15.11.2018 22:00:00 (CET)
Date & Time tt [°C] td [°C] ff [km/h] ff [knt] dd rr [mm]
15.11.2018 22:00:00 - - - - - -
15.11.2018 21:00:00 1,2 -0,6 0 0 N -
15.11.2018 20:00:00 1,4 -1,0 0 0 N -
15.11.2018 19:00:00 2,5 -0,3 0 0 N -
15.11.2018 18:00:00 3,4 -0,1 0 0 N -
15.11.2018 17:00:00 4,8 0,7 0 0 N -
15.11.2018 16:00:00 5,9 1,4 0 0 N -
15.11.2018 15:00:00 6,5 1,8 0 0 N -
15.11.2018 14:00:00 8,8 2,5 2 1 SSE -
15.11.2018 13:00:00 8,7 2,0 4 2 S -
15.11.2018 12:00:00 6,1 4,6 2 1 S -
15.11.2018 11:00:00 3,7 2,2 0 0 N -
15.11.2018 10:00:00 1,3 -0,2 0 0 N -
15.11.2018 09:00:00 -0,3 -1,8 0 0 N -
15.11.2018 08:00:00 -2,4 -3,8 0 0 N -
15.11.2018 07:00:00 -2,2 -3,6 0 0 N 0,0
15.11.2018 06:00:00 -1,5 -2,9 0 0 N -
15.11.2018 05:00:00 -2,1 -3,5 0 0 N -
15.11.2018 04:00:00 -1,2 -2,7 0 0 N -
15.11.2018 03:00:00 -0,5 -2,0 0 0 N -
15.11.2018 02:00:00 -0,4 -1,9 0 0 N -
15.11.2018 01:00:00 0,0 -1,5 0 0 N 0,0
15.11.2018 00:00:00 0,1 -1,4 0 0 N -
14.11.2018 23:00:00 1,4 -0,1 0 0 N -
14.11.2018 22:00:00 1,3 -0,5 0 0 N -
14.11.2018 21:00:00 2,3 0,6 0 0 N -
14.11.2018 20:00:00 3,1 1,1 0 0 N -
14.11.2018 19:00:00 4,4 2,4 0 0 N -
14.11.2018 18:00:00 5,3 2,4 2 1 NW -
14.11.2018 17:00:00 6,7 2,9 0 0 N -
14.11.2018 16:00:00 7,6 3,6 0 0 N -
14.11.2018 15:00:00 8,3 3,9 4 2 S -
14.11.2018 14:00:00 11,2 5,0 4 2 SSW -
14.11.2018 13:00:00 11,1 5,1 4 2 S -
14.11.2018 12:00:00 9,7 6,6 2 1 S -
14.11.2018 11:00:00 7,2 5,6 0 0 N -
14.11.2018 10:00:00 5,1 3,6 0 0 N -
14.11.2018 09:00:00 2,1 0,6 0 0 N -
14.11.2018 08:00:00 0,3 -1,2 0 0 N -
14.11.2018 07:00:00 0,7 -0,8 0 0 N 0,0
14.11.2018 06:00:00 1,5 0,0 0 0 N -
14.11.2018 05:00:00 1,5 0,0 0 0 N -
14.11.2018 04:00:00 1,7 0,2 0 0 N -
14.11.2018 03:00:00 2,6 1,1 0 0 N -
14.11.2018 02:00:00 3,7 2,2 0 0 N -
14.11.2018 01:00:00 4,5 2,8 0 0 N 0,0
14.11.2018 00:00:00 5,6 3,7 4 2 W -
13.11.2018 23:00:00 5,9 3,7 0 0 N -
13.11.2018 22:00:00 6,9 4,7 8 4 WSW -
13.11.2018 21:00:00 7,4 4,8 5 3 W -
13.11.2018 20:00:00 10,1 5,4 22 12 W -
13.11.2018 19:00:00 8,7 6,1 9 5 W 0,0
13.11.2018 18:00:00 8,1 5,5 4 2 NW -
13.11.2018 17:00:00 9,3 5,6 2 1 SW -
13.11.2018 16:00:00 10,7 6,4 4 2 S -
13.11.2018 15:00:00 11,6 7,1 2 1 S -
13.11.2018 14:00:00 12,2 7,0 4 2 SSE -
13.11.2018 13:00:00 11,4 7,3 2 1 SSW 0,0
13.11.2018 12:00:00 10,9 9,3 2 1 SSW -
13.11.2018 11:00:00 8,2 6,6 2 1 W -
13.11.2018 10:00:00 7,4 5,8 0 0 N -
13.11.2018 09:00:00 6,8 5,3 0 0 N -
13.11.2018 08:00:00 6,3 4,8 0 0 N -
13.11.2018 07:00:00 6,8 5,3 0 0 N 0,0
13.11.2018 06:00:00 6,9 5,4 0 0 N -
13.11.2018 05:00:00 7,0 5,5 0 0 N -
13.11.2018 04:00:00 6,9 5,4 0 0 N -
13.11.2018 03:00:00 6,9 5,4 0 0 N -
13.11.2018 02:00:00 7,0 5,5 0 0 N -
13.11.2018 01:00:00 7,0 5,5 0 0 N 0,0
13.11.2018 00:00:00 7,1 5,5 0 0 N -
12.11.2018 23:00:00 7,0 5,5 0 0 N -
12.11.2018 22:00:00 7,0 5,5 0 0 N -
12.11.2018 21:00:00 7,2 5,5 0 0 N -
12.11.2018 20:00:00 7,8 5,9 0 0 N -
12.11.2018 19:00:00 8,6 6,7 2 1 SSW 0,0
12.11.2018 18:00:00 9,5 7,2 0 0 N -
12.11.2018 17:00:00 10,4 7,6 0 0 N -
12.11.2018 16:00:00 10,8 7,8 2 1 NE -
12.11.2018 15:00:00 11,0 8,0 4 2 ESE -
12.11.2018 14:00:00 10,8 7,6 5 3 E -
12.11.2018 13:00:00 10,2 7,9 4 2 S 0,0
12.11.2018 12:00:00 9,8 8,2 0 0 N -
12.11.2018 11:00:00 9,1 7,5 4 2 ENE -
12.11.2018 10:00:00 8,3 6,7 4 2 N -
12.11.2018 09:00:00 7,8 6,2 0 0 N -
12.11.2018 08:00:00 7,6 6,0 0 0 N -
12.11.2018 07:00:00 7,7 6,1 2 1 SSW 0,0
12.11.2018 06:00:00 7,8 6,2 2 1 ENE -
12.11.2018 05:00:00 7,8 6,2 2 1 SSW -
12.11.2018 04:00:00 7,9 6,3 2 1 SE -
12.11.2018 03:00:00 7,9 6,3 2 1 SW -
12.11.2018 02:00:00 8,0 6,4 0 0 N -
12.11.2018 01:00:00 8,1 6,5 4 2 E 0,0
12.11.2018 00:00:00 8,2 6,6 2 1 W -
11.11.2018 23:00:00 8,2 6,6 2 1 SSW -
11.11.2018 22:00:00 8,3 6,7 4 2 SSE -
11.11.2018 21:00:00 8,4 6,8 4 2 SW -
11.11.2018 20:00:00 8,4 6,8 5 3 S -
11.11.2018 19:00:00 8,5 6,9 2 1 SSW -
11.11.2018 18:00:00 8,7 7,1 4 2 S -
11.11.2018 17:00:00 8,9 7,3 8 4 SSE -
11.11.2018 16:00:00 9,3 7,4 9 5 ESE -
11.11.2018 15:00:00 9,4 7,7 9 5 SE -
11.11.2018 14:00:00 9,2 7,6 8 4 SSE -
11.11.2018 13:00:00 8,7 7,1 8 4 SSE -
11.11.2018 12:00:00 8,3 6,7 8 4 S -
11.11.2018 11:00:00 7,8 6,2 9 5 SSE -
11.11.2018 10:00:00 7,5 5,9 5 3 SE -
11.11.2018 09:00:00 7,3 5,7 0 0 N -
11.11.2018 08:00:00 7,2 5,6 2 1 E -
11.11.2018 07:00:00 7,3 5,7 0 0 N -
11.11.2018 06:00:00 7,2 5,6 0 0 N -
11.11.2018 05:00:00 7,2 5,6 0 0 N -
11.11.2018 04:00:00 7,3 5,7 4 2 ESE -
11.11.2018 03:00:00 7,5 5,9 2 1 E -
11.11.2018 02:00:00 7,5 5,9 2 1 ENE -
11.11.2018 01:00:00 7,6 6,0 2 1 S 0,0
11.11.2018 00:00:00 7,7 6,1 4 2 W -
10.11.2018 23:00:00 7,7 6,1 4 2 W -
10.11.2018 22:00:00 7,4 5,8 2 1 E -
10.11.2018 21:00:00 7,5 5,9 2 1 NW -
10.11.2018 20:00:00 7,6 5,9 2 1 W -
10.11.2018 19:00:00 7,8 5,9 0 0 N 0,0
10.11.2018 18:00:00 8,2 6,1 5 3 WSW -
10.11.2018 17:00:00 8,8 6,2 4 2 W -
10.11.2018 16:00:00 9,3 6,0 4 2 SW -
10.11.2018 15:00:00 10,0 5,5 2 1 WSW -
10.11.2018 14:00:00 9,8 5,7 2 1 S -
10.11.2018 13:00:00 9,5 5,8 4 2 SSE 0,0
10.11.2018 12:00:00 9,1 5,4 5 3 SSE -
10.11.2018 11:00:00 9,0 5,9 4 2 SE -
10.11.2018 10:00:00 8,8 6,4 8 4 SE -
10.11.2018 09:00:00 7,5 5,9 4 2 ESE -
10.11.2018 08:00:00 6,4 4,9 0 0 N -
10.11.2018 07:00:00 6,4 4,9 0 0 N -
10.11.2018 06:00:00 6,5 5,0 0 0 N -
10.11.2018 05:00:00 6,4 4,9 0 0 N -
10.11.2018 04:00:00 6,6 5,1 0 0 N -
10.11.2018 03:00:00 6,8 5,3 0 0 N -
10.11.2018 02:00:00 7,0 5,5 2 1 WSW -
10.11.2018 01:00:00 7,0 5,5 2 1 SE -
10.11.2018 00:00:00 7,1 5,5 2 1 NNW -
09.11.2018 23:00:00 7,5 5,9 0 0 N -
09.11.2018 22:00:00 7,5 5,9 4 2 WNW -

tt = Température de l'air
td = dewpoint
ff = Vitesse du vent
dd = Direction du vent
rr = Quantités de précipitations

stations d'obs. à proximité